CMA CGM Homere — MQBL6 — position and weather

sailwx.info

Track history (hours):
 
Tides and Currents Weather Stations Pressure Air Temp Water Temp Dewpoint Dewpoint Depression Visibility Wind Speed Wind Dir Waves Ship Positions

CMA CGM Homere

Last reported at 2017-Feb-11 12:33 UTC. Time now 2017-Feb-22 06:41 UTC.
Position N 35°44' E 014°52'.
Warning: this ship's position is 10 days out of date.

Length 170 m; draft 7.5 m.

Type: Ship (hazmat cat D). MMSI: 235052314.

Date/timePositionNaut miles runAvg speedWind from/ knotsBaromVisibWave heightAir tempDewpointWater temp
2017-Feb-11 12:33N 35°44' E 014°52'1514.9
2017-Feb-11 11:33N 35°48' E 014°34'2 0.5
2017-Feb-11 08:13N 35°49' E 014°33'0 0.0
2017-Feb-11 06:04N 35°49' E 014°33'0 0.0
2017-Feb-11 00:19N 35°49' E 014°33'2 2.8
2017-Feb-10 23:33N 35°48' E 014°35'0 0.5
2017-Feb-10 22:34N 35°48' E 014°35'5 5.3
2017-Feb-10 21:33N 35°45' E 014°30'1616.1
2017-Feb-10 20:33N 35°51' E 014°12'1817.6
2017-Feb-10 19:33N 36°00' E 013°53'  
2017-Feb-08 02:16N 36°01' W 004°44'1416.1
2017-Feb-08 01:25N 36°00' W 005°01'1416.5
2017-Feb-08 00:33N 35°59' W 005°18'1615.8
2017-Feb-07 23:31N 35°55' W 005°38'19313.8
2017-Feb-07 09:30N 36°45' W 009°29'1213.3
2017-Feb-07 08:33N 36°56' W 009°36'1515.5
2017-Feb-07 07:34N 37°12' W 009°40'1816.3
2017-Feb-07 06:26N 37°29' W 009°46'1416.4
2017-Feb-07 05:33N 37°43' W 009°49'1817.1
2017-Feb-07 04:30N 38°01' W 009°55'1617.2
2017-Feb-07 03:34N 38°17' W 009°59'1717.4
2017-Feb-07 02:33N 38°34' W 010°05'1717.3
2017-Feb-07 01:33N 38°51' W 010°08'1717.3
2017-Feb-07 00:33N 39°08' W 010°07'70315.3
2017-Feb-05 02:33N 49°49' W 003°21'1616.0
2017-Feb-05 01:33N 49°56' W 002°59'1514.9
2017-Feb-05 00:34N 50°01' W 002°38'5116.0
2017-Feb-04 21:23N 49°51' W 001°20'1619.4
2017-Feb-04 20:33N 49°45' W 000°57'1919.2
2017-Feb-04 19:33N 49°38' W 000°30'1818.1
2017-Feb-04 18:33N 49°31' W 000°04'1010.0
2017-Feb-04 17:32N 49°27' E 000°10'0 0.0
2017-Feb-04 16:32N 49°27' E 000°10'0 0.0
2017-Feb-04 15:32N 49°27' E 000°10'0 0.0
2017-Feb-04 14:32N 49°27' E 000°10'0 0.0
2017-Feb-04 13:32N 49°27' E 000°10'0 0.0
2017-Feb-04 12:32N 49°27' E 000°10'0 0.0
2017-Feb-04 11:32N 49°27' E 000°10'0 0.0
2017-Feb-04 10:33N 49°27' E 000°10'1 1.5
2017-Feb-04 09:33N 49°28' E 000°08'1110.6
2017-Feb-04 08:33N 49°31' W 000°07'6 5.5
2017-Feb-04 07:33N 49°33' W 000°15'2 1.7
2017-Feb-04 06:33N 49°34' W 000°16'3 2.7
2017-Feb-04 05:32N 49°37' W 000°15'0 0.0
2017-Feb-04 04:32N 49°37' W 000°15'0 0.1
2017-Feb-04 03:32N 49°37' W 000°15'0 0.1
2017-Feb-04 02:32N 49°37' W 000°15'0 0.0
2017-Feb-04 01:32N 49°37' W 000°15'0 0.0
2017-Feb-04 00:32N 49°37' W 000°15'0 0.0
2017-Feb-03 23:32N 49°37' W 000°15'0 0.0
2017-Feb-03 22:32N 49°37' W 000°15'0 0.0
2017-Feb-03 21:32N 49°37' W 000°15'1 0.5
2017-Feb-03 20:33N 49°37' W 000°16'1212.2
2017-Feb-03 19:34N 49°47' W 000°28'1312.5
2017-Feb-03 18:33N 49°59' W 000°22'1413.7
2017-Feb-03 17:33N 50°11' W 000°14'1413.7
2017-Feb-03 16:33N 50°24' W 000°06'1413.7
2017-Feb-03 15:34N 50°30' E 000°13'1414.1
2017-Feb-03 14:34N 50°34' E 000°34'1413.7
2017-Feb-03 13:34N 50°42' E 000°52'1413.5
2017-Feb-03 12:33N 50°50' E 001°10'1515.6
2017-Feb-03 11:33N 51°01' E 001°27'1716.6
2017-Feb-03 10:34N 51°13' E 001°45'1515.3
2017-Feb-03 09:34N 51°25' E 001°59'1515.2
2017-Feb-03 08:33N 51°21' E 002°23'1414.3
2017-Feb-03 07:33N 51°22' E 002°46'1313.3
2017-Feb-03 06:33N 51°24' E 003°07'1414.4
2017-Feb-03 05:33N 51°25' E 003°30'8 8.3
2017-Feb-03 04:33N 51°23' E 003°43'9 9.4
2017-Feb-03 03:33N 51°25' E 003°58'8 8.4
2017-Feb-03 02:33N 51°24' E 004°11'7 5.9
2017-Feb-03 01:24N 51°18' E 004°16'0 0.0
2017-Feb-03 00:33N 51°18' E 004°16'0 0.0
2017-Feb-02 23:30N 51°18' E 004°16'0 0.0
2017-Feb-02 22:33N 51°18' E 004°16'0 0.0
2017-Feb-02 21:33N 51°18' E 004°16'0 0.0
2017-Feb-02 20:33N 51°18' E 004°16'0 0.0
2017-Feb-02 19:30N 51°18' E 004°16'0 0.0
2017-Feb-02 18:33N 51°18' E 004°16'0 0.0
2017-Feb-02 17:33N 51°18' E 004°16'0 0.0
2017-Feb-02 16:33N 51°18' E 004°16'0 0.0
2017-Feb-02 15:33N 51°18' E 004°16'0 0.0
2017-Feb-02 14:33N 51°18' E 004°16'0 0.0
2017-Feb-02 13:24N 51°18' E 004°16'0 0.0
2017-Feb-02 12:33N 51°18' E 004°16'0 0.3
2017-Feb-02 11:33N 51°18' E 004°16'7 6.8
2017-Feb-02 10:33N 51°22' E 004°08'8 7.9
2017-Feb-02 09:33N 51°22' E 003°55'10 9.8
2017-Feb-02 08:34N 51°26' E 003°41'7 7.5
2017-Feb-02 07:34N 51°29' E 003°30'1010.3
2017-Feb-02 06:33N 51°38' E 003°21'9 8.9
2017-Feb-02 05:33N 51°45' E 003°13'9 9.2
2017-Feb-02 04:33N 51°54' E 003°19'10 9.7
2017-Feb-02 03:33N 52°03' E 003°24'1110.5
2017-Feb-02 02:33N 52°03' E 003°41'1111.1
2017-Feb-02 01:33N 52°01' E 003°59'1413.7
2017-Feb-02 00:34N 51°54' E 004°18'5 4.8
2017-Feb-01 23:33N 51°53' E 004°26'0 0.0
2017-Feb-01 22:33N 51°53' E 004°26'0 0.0
2017-Feb-01 21:33N 51°53' E 004°26'0 0.0
2017-Feb-01 20:32N 51°53' E 004°26'0 0.0
2017-Feb-01 19:33N 51°53' E 004°26'0 0.0
2017-Feb-01 18:30N 51°53' E 004°26'0 0.0
2017-Feb-01 17:33N 51°53' E 004°26'0 0.0
2017-Feb-01 16:33N 51°53' E 004°26'0 0.0
2017-Feb-01 15:33N 51°53' E 004°26'0 0.0
2017-Feb-01 14:32N 51°53' E 004°26'9 4.5
2017-Feb-01 12:33N 51°56' E 004°12'  
Track history (hours):
 
Tides and Currents Weather Stations Pressure Air Temp Water Temp Dewpoint Dewpoint Depression Visibility Wind Speed Wind Dir Waves Ship Positions

CMA CGM Homere

Last reported at 2017-Feb-11 12:33 UTC. Time now 2017-Feb-22 06:41 UTC.
Position N 35°44' E 014°52'.
Warning: this ship's position is 10 days out of date.

Length 170 m; draft 7.5 m.

Type: Ship (hazmat cat D). MMSI: 235052314.

Date/timePositionNaut miles runAvg speedWind from/ knotsBaromVisibWave heightAir tempDewpointWater temp
2017-Feb-11 12:33N 35°44' E 014°52'1514.9
2017-Feb-11 11:33N 35°48' E 014°34'2 0.5
2017-Feb-11 08:13N 35°49' E 014°33'0 0.0
2017-Feb-11 06:04N 35°49' E 014°33'0 0.0
2017-Feb-11 00:19N 35°49' E 014°33'2 2.8
2017-Feb-10 23:33N 35°48' E 014°35'0 0.5
2017-Feb-10 22:34N 35°48' E 014°35'5 5.3
2017-Feb-10 21:33N 35°45' E 014°30'1616.1
2017-Feb-10 20:33N 35°51' E 014°12'1817.6
2017-Feb-10 19:33N 36°00' E 013°53'  
2017-Feb-08 02:16N 36°01' W 004°44'1416.1
2017-Feb-08 01:25N 36°00' W 005°01'1416.5
2017-Feb-08 00:33N 35°59' W 005°18'1615.8
2017-Feb-07 23:31N 35°55' W 005°38'19313.8
2017-Feb-07 09:30N 36°45' W 009°29'1213.3
2017-Feb-07 08:33N 36°56' W 009°36'1515.5
2017-Feb-07 07:34N 37°12' W 009°40'1816.3
2017-Feb-07 06:26N 37°29' W 009°46'1416.4
2017-Feb-07 05:33N 37°43' W 009°49'1817.1
2017-Feb-07 04:30N 38°01' W 009°55'1617.2
2017-Feb-07 03:34N 38°17' W 009°59'1717.4
2017-Feb-07 02:33N 38°34' W 010°05'1717.3
2017-Feb-07 01:33N 38°51' W 010°08'1717.3
2017-Feb-07 00:33N 39°08' W 010°07'70315.3
2017-Feb-05 02:33N 49°49' W 003°21'1616.0
2017-Feb-05 01:33N 49°56' W 002°59'1514.9
2017-Feb-05 00:34N 50°01' W 002°38'5116.0
2017-Feb-04 21:23N 49°51' W 001°20'1619.4
2017-Feb-04 20:33N 49°45' W 000°57'1919.2
2017-Feb-04 19:33N 49°38' W 000°30'1818.1
2017-Feb-04 18:33N 49°31' W 000°04'1010.0
2017-Feb-04 17:32N 49°27' E 000°10'0 0.0
2017-Feb-04 16:32N 49°27' E 000°10'0 0.0
2017-Feb-04 15:32N 49°27' E 000°10'0 0.0
2017-Feb-04 14:32N 49°27' E 000°10'0 0.0
2017-Feb-04 13:32N 49°27' E 000°10'0 0.0
2017-Feb-04 12:32N 49°27' E 000°10'0 0.0
2017-Feb-04 11:32N 49°27' E 000°10'0 0.0
2017-Feb-04 10:33N 49°27' E 000°10'1 1.5
2017-Feb-04 09:33N 49°28' E 000°08'1110.6
2017-Feb-04 08:33N 49°31' W 000°07'6 5.5
2017-Feb-04 07:33N 49°33' W 000°15'2 1.7
2017-Feb-04 06:33N 49°34' W 000°16'3 2.7
2017-Feb-04 05:32N 49°37' W 000°15'0 0.0
2017-Feb-04 04:32N 49°37' W 000°15'0 0.1
2017-Feb-04 03:32N 49°37' W 000°15'0 0.1
2017-Feb-04 02:32N 49°37' W 000°15'0 0.0
2017-Feb-04 01:32N 49°37' W 000°15'0 0.0
2017-Feb-04 00:32N 49°37' W 000°15'0 0.0
2017-Feb-03 23:32N 49°37' W 000°15'0 0.0
2017-Feb-03 22:32N 49°37' W 000°15'0 0.0
2017-Feb-03 21:32N 49°37' W 000°15'1 0.5
2017-Feb-03 20:33N 49°37' W 000°16'1212.2
2017-Feb-03 19:34N 49°47' W 000°28'1312.5
2017-Feb-03 18:33N 49°59' W 000°22'1413.7
2017-Feb-03 17:33N 50°11' W 000°14'1413.7
2017-Feb-03 16:33N 50°24' W 000°06'1413.7
2017-Feb-03 15:34N 50°30' E 000°13'1414.1
2017-Feb-03 14:34N 50°34' E 000°34'1413.7
2017-Feb-03 13:34N 50°42' E 000°52'1413.5
2017-Feb-03 12:33N 50°50' E 001°10'1515.6
2017-Feb-03 11:33N 51°01' E 001°27'1716.6
2017-Feb-03 10:34N 51°13' E 001°45'1515.3
2017-Feb-03 09:34N 51°25' E 001°59'1515.2
2017-Feb-03 08:33N 51°21' E 002°23'1414.3
2017-Feb-03 07:33N 51°22' E 002°46'1313.3
2017-Feb-03 06:33N 51°24' E 003°07'1414.4
2017-Feb-03 05:33N 51°25' E 003°30'8 8.3
2017-Feb-03 04:33N 51°23' E 003°43'9 9.4
2017-Feb-03 03:33N 51°25' E 003°58'8 8.4
2017-Feb-03 02:33N 51°24' E 004°11'7 5.9
2017-Feb-03 01:24N 51°18' E 004°16'0 0.0
2017-Feb-03 00:33N 51°18' E 004°16'0 0.0
2017-Feb-02 23:30N 51°18' E 004°16'0 0.0
2017-Feb-02 22:33N 51°18' E 004°16'0 0.0
2017-Feb-02 21:33N 51°18' E 004°16'0 0.0
2017-Feb-02 20:33N 51°18' E 004°16'0 0.0
2017-Feb-02 19:30N 51°18' E 004°16'0 0.0
2017-Feb-02 18:33N 51°18' E 004°16'0 0.0
2017-Feb-02 17:33N 51°18' E 004°16'0 0.0
2017-Feb-02 16:33N 51°18' E 004°16'0 0.0
2017-Feb-02 15:33N 51°18' E 004°16'0 0.0
2017-Feb-02 14:33N 51°18' E 004°16'0 0.0
2017-Feb-02 13:24N 51°18' E 004°16'0 0.0
2017-Feb-02 12:33N 51°18' E 004°16'0 0.3
2017-Feb-02 11:33N 51°18' E 004°16'7 6.8
2017-Feb-02 10:33N 51°22' E 004°08'8 7.9
2017-Feb-02 09:33N 51°22' E 003°55'10 9.8
2017-Feb-02 08:34N 51°26' E 003°41'7 7.5
2017-Feb-02 07:34N 51°29' E 003°30'1010.3
2017-Feb-02 06:33N 51°38' E 003°21'9 8.9
2017-Feb-02 05:33N 51°45' E 003°13'9 9.2
2017-Feb-02 04:33N 51°54' E 003°19'10 9.7
2017-Feb-02 03:33N 52°03' E 003°24'1110.5
2017-Feb-02 02:33N 52°03' E 003°41'1111.1
2017-Feb-02 01:33N 52°01' E 003°59'1413.7
2017-Feb-02 00:34N 51°54' E 004°18'5 4.8
2017-Feb-01 23:33N 51°53' E 004°26'0 0.0
2017-Feb-01 22:33N 51°53' E 004°26'0 0.0
2017-Feb-01 21:33N 51°53' E 004°26'0 0.0
2017-Feb-01 20:32N 51°53' E 004°26'0 0.0
2017-Feb-01 19:33N 51°53' E 004°26'0 0.0
2017-Feb-01 18:30N 51°53' E 004°26'0 0.0
2017-Feb-01 17:33N 51°53' E 004°26'0 0.0
2017-Feb-01 16:33N 51°53' E 004°26'0 0.0
2017-Feb-01 15:33N 51°53' E 004°26'0 0.0
2017-Feb-01 14:32N 51°53' E 004°26'9 4.5
2017-Feb-01 12:33N 51°56' E 004°12'  

Dump ship's entire track history